createdAt,value
2022-08-09T00:02:49.259Z,16.01
2022-08-09T00:06:19.790Z,16.27
2022-08-09T00:09:47.298Z,17.59
2022-08-09T00:13:17.583Z,17.71
2022-08-09T00:16:42.300Z,18.26
2022-08-09T00:20:06.359Z,19.44
2022-08-09T00:23:56.193Z,19.23
2022-08-09T00:27:21.313Z,18.24
2022-08-09T00:30:46.312Z,18.17
2022-08-09T00:34:11.342Z,19.02
2022-08-09T00:37:35.320Z,19.08
2022-08-09T00:41:01.388Z,19.55
2022-08-09T00:44:27.670Z,19.01
2022-08-09T00:47:55.512Z,18.73
2022-08-09T00:51:20.364Z,18.05
2022-08-09T00:54:45.400Z,17.63
2022-08-09T00:58:09.309Z,17.42
2022-08-09T01:01:49.406Z,17.39
2022-08-09T01:05:50.747Z,17.32
2022-08-09T01:09:42.344Z,17.26
2022-08-09T01:13:31.068Z,16.87
2022-08-09T01:17:09.047Z,17.70
2022-08-09T01:20:50.360Z,17.67
2022-08-09T01:24:34.386Z,17.71
2022-08-09T01:27:58.378Z,17.52
2022-08-09T01:32:29.572Z,17.33
2022-08-09T01:35:29.066Z,17.61
2022-08-09T01:38:54.337Z,17.85
2022-08-09T01:42:20.367Z,17.66
2022-08-09T01:45:47.663Z,17.66
2022-08-09T01:49:15.357Z,17.92
2022-08-09T01:52:41.320Z,18.15
2022-08-09T01:56:09.369Z,18.55
2022-08-09T01:59:40.877Z,18.01
2022-08-09T02:03:15.369Z,18.53
2022-08-09T02:06:58.628Z,19.13
2022-08-09T02:10:29.929Z,18.78
2022-08-09T02:14:06.280Z,18.69
2022-08-09T02:18:00.424Z,18.56
2022-08-09T02:21:24.342Z,18.24
2022-08-09T02:24:54.425Z,17.98
2022-08-09T02:28:28.380Z,17.84
2022-08-09T02:31:53.495Z,17.95
2022-08-09T02:35:25.721Z,17.90
2022-08-09T02:39:14.551Z,17.73
2022-08-09T02:42:53.336Z,17.08
2022-08-09T02:46:17.389Z,17.17
2022-08-09T02:49:41.632Z,17.05
2022-08-09T02:53:26.105Z,17.42
2022-08-09T02:56:57.087Z,17.07
2022-08-09T03:00:29.728Z,17.05
2022-08-09T03:04:17.231Z,17.21
2022-08-09T03:07:40.393Z,17.17
2022-08-09T03:10:59.006Z,17.27
2022-08-09T03:14:18.403Z,17.06
2022-08-09T03:17:44.371Z,16.78
2022-08-09T03:21:08.437Z,16.68
2022-08-09T03:24:42.827Z,16.61
2022-08-09T03:28:18.387Z,16.65
2022-08-09T03:31:59.845Z,16.64
2022-08-09T03:36:13.618Z,16.45
2022-08-09T03:39:10.471Z,16.30
2022-08-09T03:42:34.486Z,16.12
2022-08-09T03:46:05.112Z,16.11
2022-08-09T03:49:58.019Z,16.11
2022-08-09T03:53:24.416Z,16.22
2022-08-09T03:56:57.775Z,16.21
2022-08-09T04:00:22.443Z,16.28
2022-08-09T04:04:01.133Z,16.13
2022-08-09T04:07:33.629Z,16.09
2022-08-09T04:11:05.458Z,16.04
2022-08-09T04:14:53.431Z,16.01
2022-08-09T04:18:17.878Z,16.01
2022-08-09T04:21:42.368Z,15.93
2022-08-09T04:25:06.465Z,15.68
2022-08-09T04:28:36.311Z,15.50
2022-08-09T04:32:01.390Z,15.50
2022-08-09T04:35:26.471Z,15.49
2022-08-09T04:38:53.392Z,15.51
2022-08-09T04:42:18.588Z,15.43
2022-08-09T04:45:53.174Z,15.10
2022-08-09T04:49:30.273Z,14.82
2022-08-09T04:53:02.393Z,14.44
2022-08-09T04:56:28.436Z,14.22
2022-08-09T04:59:52.430Z,14.09
2022-08-09T05:03:40.235Z,14.28
2022-08-09T05:07:03.427Z,14.00
2022-08-09T05:10:23.458Z,13.96
2022-08-09T05:13:42.134Z,14.04
2022-08-09T05:17:00.484Z,14.02
2022-08-09T05:20:25.410Z,13.95
2022-08-09T05:24:00.098Z,13.78
2022-08-09T05:27:25.426Z,13.74
2022-08-09T05:30:51.593Z,13.72
2022-08-09T05:34:17.595Z,13.76
2022-08-09T05:37:50.166Z,13.62
2022-08-09T05:41:14.501Z,13.53
2022-08-09T05:44:39.464Z,13.59
2022-08-09T05:48:03.450Z,13.47
2022-08-09T05:51:43.176Z,13.47
2022-08-09T05:55:20.513Z,13.41
2022-08-09T05:58:45.449Z,13.31
2022-08-09T06:02:10.427Z,13.31
2022-08-09T06:05:54.653Z,13.30
2022-08-09T06:09:23.206Z,13.30
2022-08-09T06:13:12.323Z,13.16
2022-08-09T06:16:38.066Z,13.18
2022-08-09T06:19:58.571Z,13.13
2022-08-09T06:23:22.465Z,13.08
2022-08-09T06:26:50.520Z,13.03
2022-08-09T06:30:16.072Z,13.04
2022-08-09T06:33:48.655Z,12.93
2022-08-09T06:37:17.421Z,12.94
2022-08-09T06:40:42.580Z,12.93
2022-08-09T06:44:08.445Z,12.94
2022-08-09T06:47:39.933Z,12.95
2022-08-09T06:51:01.475Z,12.86
2022-08-09T06:54:29.447Z,12.85
2022-08-09T06:58:03.347Z,12.86
2022-08-09T07:01:53.598Z,12.77
2022-08-09T07:05:12.481Z,12.75
2022-08-09T07:08:39.500Z,12.68
2022-08-09T07:12:02.536Z,12.74
2022-08-09T07:16:34.975Z,12.81
2022-08-09T07:19:10.527Z,12.67
2022-08-09T07:22:47.444Z,12.64
2022-08-09T07:26:18.509Z,12.58
2022-08-09T07:29:43.509Z,12.64
2022-08-09T07:33:14.826Z,12.65
2022-08-09T07:36:40.447Z,12.55
2022-08-09T07:40:06.623Z,12.60
2022-08-09T07:43:32.488Z,12.47
2022-08-09T07:47:05.552Z,12.50
2022-08-09T07:50:36.866Z,12.52
2022-08-09T07:54:06.607Z,12.48
2022-08-09T07:57:33.764Z,12.40
2022-08-09T08:01:06.355Z,12.45
2022-08-09T08:04:35.481Z,12.40
2022-08-09T08:08:42.766Z,12.38
2022-08-09T08:12:11.391Z,12.39
2022-08-09T08:15:35.319Z,12.22
2022-08-09T08:18:59.513Z,12.26
2022-08-09T08:22:28.530Z,12.25
2022-08-09T08:26:06.084Z,12.24
2022-08-09T08:29:39.270Z,12.17
2022-08-09T08:33:11.888Z,12.18
2022-08-09T08:36:46.565Z,12.06
2022-08-09T08:40:11.480Z,12.12
2022-08-09T08:43:36.251Z,12.05
2022-08-09T08:47:04.641Z,12.09
2022-08-09T08:50:36.518Z,11.97
2022-08-09T08:54:04.189Z,12.01
2022-08-09T08:57:27.565Z,12.03
2022-08-09T09:00:54.427Z,12.13
2022-08-09T09:04:28.525Z,12.04
2022-08-09T09:07:53.473Z,11.99
2022-08-09T09:11:19.919Z,11.90
2022-08-09T09:14:47.526Z,12.01
2022-08-09T09:18:11.575Z,11.90
2022-08-09T09:21:43.469Z,11.94
2022-08-09T09:26:04.598Z,11.93
2022-08-09T09:29:03.407Z,11.95
2022-08-09T09:32:38.523Z,11.89
2022-08-09T09:36:19.966Z,11.98
2022-08-09T09:39:54.673Z,11.95
2022-08-09T09:43:19.547Z,11.94
2022-08-09T09:46:52.620Z,11.96
2022-08-09T09:50:17.368Z,12.01
2022-08-09T09:54:00.840Z,11.90
2022-08-09T09:58:00.515Z,11.98
2022-08-09T10:01:37.213Z,11.83
2022-08-09T10:05:01.545Z,11.85
2022-08-09T10:08:54.299Z,11.71
2022-08-09T10:12:28.556Z,11.64
2022-08-09T10:16:54.842Z,11.59
2022-08-09T10:19:52.965Z,11.58
2022-08-09T10:23:50.557Z,11.66
2022-08-09T10:27:17.459Z,11.62
2022-08-09T10:34:33.267Z,11.58
2022-08-09T10:37:59.530Z,11.52
2022-08-09T10:41:26.648Z,11.50
2022-08-09T10:44:52.526Z,11.49
2022-08-09T10:48:29.777Z,11.46
2022-08-09T10:52:13.452Z,11.51
2022-08-09T10:55:57.931Z,11.44
2022-08-09T10:59:58.012Z,11.50
2022-08-09T11:03:51.019Z,11.50
2022-08-09T11:07:17.553Z,11.53
2022-08-09T11:11:00.930Z,11.69
2022-08-09T11:15:18.464Z,11.90
2022-08-09T11:19:03.598Z,11.83
2022-08-09T11:22:35.878Z,11.73
2022-08-09T11:26:01.770Z,11.63
2022-08-09T11:30:06.362Z,11.59
2022-08-09T11:33:50.371Z,11.52
2022-08-09T11:37:18.005Z,11.39
2022-08-09T11:40:46.598Z,11.29
2022-08-09T11:44:11.588Z,11.39
2022-08-09T11:47:38.616Z,11.35
2022-08-09T11:52:53.989Z,11.39
2022-08-09T11:54:57.638Z,11.36
2022-08-09T11:58:32.990Z,11.35
2022-08-09T12:02:16.975Z,11.27
2022-08-09T12:05:50.611Z,11.23
2022-08-09T12:09:21.001Z,11.16
2022-08-09T12:14:07.990Z,11.06
2022-08-09T12:16:56.272Z,10.90
2022-08-09T12:20:31.628Z,10.94
2022-08-09T12:24:09.437Z,10.81
2022-08-09T12:29:11.661Z,10.67
2022-08-09T12:31:30.905Z,10.58
2022-08-09T12:35:13.210Z,10.66
2022-08-09T12:38:44.606Z,10.45
2022-08-09T12:42:08.643Z,10.33
2022-08-09T12:45:38.053Z,10.20
2022-08-09T12:49:02.622Z,10.13
2022-08-09T12:52:42.653Z,10.05
2022-08-09T12:56:39.597Z,10.07
2022-08-09T13:00:08.648Z,10.08
2022-08-09T13:03:53.665Z,9.95
2022-08-09T13:07:51.303Z,9.82
2022-08-09T13:11:24.383Z,9.67
2022-08-09T13:14:54.056Z,9.62
2022-08-09T13:18:19.576Z,9.60
2022-08-09T13:22:37.218Z,9.65
2022-08-09T13:25:41.237Z,9.65
2022-08-09T13:30:02.934Z,9.81
2022-08-09T13:33:11.986Z,9.73
2022-08-09T13:36:40.363Z,9.82
2022-08-09T13:41:51.858Z,9.77
2022-08-09T13:43:51.612Z,9.73
2022-08-09T13:47:49.982Z,9.75
2022-08-09T13:51:12.651Z,9.62
2022-08-09T13:54:42.757Z,9.71
2022-08-09T13:58:22.582Z,9.71
2022-08-09T14:02:01.316Z,9.68
2022-08-09T14:06:00.569Z,9.65
2022-08-09T14:09:10.644Z,9.67
2022-08-09T14:12:28.615Z,9.67
2022-08-09T14:16:06.773Z,9.56
2022-08-09T14:19:34.663Z,9.56
2022-08-09T14:22:58.671Z,9.59
2022-08-09T14:26:22.615Z,9.60
2022-08-09T14:30:34.503Z,9.64
2022-08-09T14:33:38.285Z,9.70
2022-08-09T14:37:06.914Z,9.55
2022-08-09T14:40:39.043Z,9.50
2022-08-09T14:44:15.648Z,9.59
2022-08-09T14:47:59.609Z,9.59
2022-08-09T14:51:24.666Z,9.66
2022-08-09T14:54:47.615Z,9.57
2022-08-09T14:58:13.634Z,9.62
2022-08-09T15:01:29.722Z,9.57
2022-08-09T15:04:57.600Z,9.76
2022-08-09T15:08:23.829Z,9.77
2022-08-09T15:11:49.822Z,9.67
2022-08-09T15:15:15.655Z,9.64
2022-08-09T15:18:39.606Z,9.48
2022-08-09T15:22:02.356Z,9.55
2022-08-09T15:25:41.210Z,9.44
2022-08-09T15:29:06.668Z,9.45
2022-08-09T15:32:30.666Z,9.40
2022-08-09T15:36:01.627Z,9.29
2022-08-09T15:39:23.701Z,9.27
2022-08-09T15:42:47.622Z,9.38
2022-08-09T15:46:32.197Z,9.22
2022-08-09T15:50:04.437Z,9.04
2022-08-09T15:54:04.526Z,9.01
2022-08-09T15:57:18.906Z,8.88
2022-08-09T16:00:49.726Z,8.73
2022-08-09T16:04:14.641Z,8.75
2022-08-09T16:07:45.802Z,8.64
2022-08-09T16:11:10.634Z,8.67
2022-08-09T16:14:34.803Z,8.50
2022-08-09T16:17:59.624Z,8.54
2022-08-09T16:21:25.726Z,8.52
2022-08-09T16:24:56.883Z,8.45
2022-08-09T16:28:25.872Z,8.25
2022-08-09T16:32:17.754Z,8.40
2022-08-09T16:35:56.379Z,8.41
2022-08-09T16:39:10.315Z,8.38
2022-08-09T16:42:27.814Z,8.37
2022-08-09T16:45:53.585Z,8.37
2022-08-09T16:50:28.361Z,8.44
2022-08-09T16:53:01.949Z,8.53
2022-08-09T16:56:26.639Z,8.52
2022-08-09T16:59:57.591Z,8.68
2022-08-09T17:03:22.855Z,8.71
2022-08-09T17:08:40.934Z,8.71
2022-08-09T17:10:31.777Z,8.69
2022-08-09T17:14:01.197Z,8.73
2022-08-09T17:17:27.047Z,8.64
2022-08-09T17:20:53.207Z,8.65
2022-08-09T17:24:26.919Z,8.62
2022-08-09T17:27:55.872Z,8.66
2022-08-09T17:31:19.703Z,8.59
2022-08-09T17:35:03.822Z,8.61
2022-08-09T17:38:32.404Z,8.62
2022-08-09T17:42:01.726Z,8.57
2022-08-09T17:45:27.208Z,8.66
2022-08-09T17:48:52.900Z,8.61
2022-08-09T17:52:20.680Z,8.59
2022-08-09T17:55:48.652Z,8.49
2022-08-09T17:59:16.983Z,8.58
2022-08-09T18:02:42.842Z,8.43
2022-08-09T18:06:31.134Z,8.41
2022-08-09T18:10:04.344Z,8.37
2022-08-09T18:13:42.933Z,8.37
2022-08-09T18:17:12.723Z,8.41
2022-08-09T18:20:57.915Z,8.37
2022-08-09T18:24:28.680Z,8.30
2022-08-09T18:28:04.485Z,8.21
2022-08-09T18:31:55.504Z,8.30
2022-08-09T18:35:16.724Z,8.19
2022-08-09T18:38:40.742Z,8.16
2022-08-09T18:42:08.834Z,8.07
2022-08-09T18:46:49.398Z,7.99
2022-08-09T18:49:18.722Z,7.83
2022-08-09T18:52:42.942Z,7.85
2022-08-09T18:56:07.835Z,7.78
2022-08-09T18:59:37.402Z,7.78
2022-08-09T19:03:13.807Z,7.84
2022-08-09T19:06:38.783Z,7.82
2022-08-09T19:10:13.727Z,7.73
2022-08-09T19:13:51.308Z,7.69
2022-08-09T19:17:16.748Z,7.70
2022-08-09T19:20:40.787Z,7.88
2022-08-09T19:24:32.919Z,7.80
2022-08-09T19:27:53.718Z,7.85
2022-08-09T19:31:18.860Z,7.84
2022-08-09T19:34:47.955Z,7.78
2022-08-09T19:38:16.723Z,7.71
2022-08-09T19:41:42.341Z,7.92
2022-08-09T19:45:07.725Z,7.98
2022-08-09T19:49:00.375Z,8.85
2022-08-09T19:52:18.123Z,10.54
2022-08-09T19:56:02.208Z,9.20
2022-08-09T19:59:57.214Z,8.81
2022-08-09T20:04:10.799Z,8.71
2022-08-09T20:06:57.733Z,8.69
2022-08-09T20:10:34.042Z,8.60
2022-08-09T20:13:59.739Z,8.87
2022-08-09T20:17:23.694Z,8.88
2022-08-09T20:20:51.116Z,8.94
2022-08-09T20:24:29.154Z,8.95
2022-08-09T20:27:56.779Z,9.21
2022-08-09T20:31:22.462Z,9.09
2022-08-09T20:34:46.764Z,9.19
2022-08-09T20:38:27.617Z,9.42
2022-08-09T20:41:59.798Z,9.50
2022-08-09T20:46:01.767Z,9.61
2022-08-09T20:49:07.770Z,9.58
2022-08-09T20:52:35.985Z,9.78
2022-08-09T20:56:02.911Z,9.91
2022-08-09T20:59:50.264Z,9.92
2022-08-09T21:03:02.828Z,10.20
2022-08-09T21:06:31.222Z,10.32
2022-08-09T21:10:00.794Z,10.39
2022-08-09T21:13:25.734Z,10.42
2022-08-09T21:16:49.809Z,10.54
2022-08-09T21:20:22.831Z,10.59
2022-08-09T21:23:51.613Z,10.87
2022-08-09T21:27:52.270Z,11.09
2022-08-09T21:30:59.826Z,11.08
2022-08-09T21:34:29.545Z,11.23
2022-08-09T21:37:59.204Z,11.20
2022-08-09T21:41:25.658Z,11.32
2022-08-09T21:45:07.836Z,11.23
2022-08-09T21:48:33.361Z,11.45
2022-08-09T21:51:51.206Z,11.71
2022-08-09T21:55:16.847Z,11.73
2022-08-09T21:58:40.778Z,11.96
2022-08-09T22:02:08.809Z,11.99
2022-08-09T22:05:43.834Z,12.07
2022-08-09T22:09:08.786Z,12.60
2022-08-09T22:12:34.997Z,12.76
2022-08-09T22:16:03.723Z,12.61
2022-08-09T22:19:58.504Z,12.59
2022-08-09T22:23:13.564Z,13.11
2022-08-09T22:26:38.129Z,13.41
2022-08-09T22:30:02.806Z,12.92
2022-08-09T22:33:37.597Z,13.95
2022-08-09T22:37:13.895Z,14.97
2022-08-09T22:40:37.876Z,14.95
2022-08-09T22:44:04.285Z,15.29
2022-08-09T22:48:34.689Z,15.86
2022-08-09T22:51:10.330Z,15.91
2022-08-09T22:54:27.830Z,16.23
2022-08-09T22:58:00.014Z,15.91
2022-08-09T23:01:24.890Z,16.11
2022-08-09T23:04:54.667Z,16.39
2022-08-09T23:08:32.961Z,16.44
2022-08-09T23:11:58.948Z,17.67
2022-08-09T23:15:22.829Z,17.66
2022-08-09T23:18:46.854Z,16.93
2022-08-09T23:22:09.790Z,17.14
2022-08-09T23:25:33.882Z,16.89
2022-08-09T23:28:57.787Z,17.09
2022-08-09T23:32:21.895Z,17.33
2022-08-09T23:36:05.592Z,17.28
2022-08-09T23:39:29.853Z,17.58
2022-08-09T23:42:52.829Z,18.44
2022-08-09T23:46:16.796Z,18.94
2022-08-09T23:49:41.835Z,18.70
2022-08-09T23:53:05.857Z,18.63
2022-08-09T23:56:51.919Z,18.98
